createdAt,value
2019-06-20T00:01:51.325Z,78.70
2019-06-20T00:04:19.884Z,78.40
2019-06-20T00:06:48.394Z,78.20
2019-06-20T00:09:16.887Z,78.20
2019-06-20T00:11:45.495Z,78.50
2019-06-20T00:14:14.073Z,78.70
2019-06-20T00:16:42.577Z,78.90
2019-06-20T00:19:11.170Z,79.50
2019-06-20T00:21:39.673Z,79.30
2019-06-20T00:24:08.210Z,79.50
2019-06-20T00:26:36.697Z,79.20
2019-06-20T00:29:05.243Z,79.50
2019-06-20T00:31:33.777Z,80.30
2019-06-20T00:34:02.391Z,79.80
2019-06-20T00:36:30.888Z,79.60
2019-06-20T00:38:59.475Z,79.80
2019-06-20T00:41:28.029Z,79.80
2019-06-20T00:43:56.546Z,79.70
2019-06-20T00:46:25.074Z,80.10
2019-06-20T00:48:53.670Z,80.20
2019-06-20T00:51:22.344Z,80.50
2019-06-20T00:53:50.951Z,80.30
2019-06-20T00:56:19.518Z,80.70
2019-06-20T00:58:48.371Z,80.90
2019-06-20T01:01:16.862Z,80.70
2019-06-20T01:03:45.400Z,80.90
2019-06-20T01:06:13.961Z,80.60
2019-06-20T01:08:42.479Z,80.30
2019-06-20T01:11:11.072Z,80.30
2019-06-20T01:13:39.561Z,80.50
2019-06-20T01:16:08.123Z,80.30
2019-06-20T01:18:36.670Z,79.90
2019-06-20T01:21:05.226Z,80.40
2019-06-20T01:23:33.725Z,80.00
2019-06-20T01:26:02.490Z,79.90
2019-06-20T01:28:31.046Z,80.90
2019-06-20T01:30:59.563Z,79.80
2019-06-20T01:33:28.082Z,79.20
2019-06-20T01:35:56.639Z,78.80
2019-06-20T01:38:25.135Z,79.10
2019-06-20T01:40:53.664Z,79.00
2019-06-20T01:43:22.216Z,79.00
2019-06-20T01:45:50.703Z,79.00
2019-06-20T01:48:19.200Z,79.30
2019-06-20T01:50:47.690Z,79.30
2019-06-20T01:53:16.210Z,79.10
2019-06-20T01:55:44.737Z,79.40
2019-06-20T01:58:13.341Z,80.80
2019-06-20T02:00:49.846Z,79.80
2019-06-20T02:03:19.867Z,79.50
2019-06-20T02:05:48.546Z,79.50
2019-06-20T02:08:17.034Z,79.60
2019-06-20T02:10:45.714Z,79.90
2019-06-20T02:13:14.213Z,79.70
2019-06-20T02:15:42.766Z,79.80
2019-06-20T02:18:11.269Z,79.90
2019-06-20T02:20:57.638Z,79.50
2019-06-20T02:23:26.226Z,80.20
2019-06-20T02:25:54.822Z,80.30
2019-06-20T02:28:25.250Z,80.70
2019-06-20T02:30:53.812Z,80.50
2019-06-20T02:33:22.377Z,80.50
2019-06-20T02:35:50.874Z,80.80
2019-06-20T02:38:19.367Z,81.00
2019-06-20T02:40:47.954Z,81.40
2019-06-20T02:43:16.547Z,81.30
2019-06-20T02:45:45.114Z,80.70
2019-06-20T02:48:13.605Z,81.00
2019-06-20T02:50:42.280Z,81.30
2019-06-20T02:53:10.775Z,81.30
2019-06-20T02:55:39.385Z,81.50
2019-06-20T02:58:07.943Z,81.60
2019-06-20T03:00:42.373Z,81.80
2019-06-20T03:03:10.941Z,81.90
2019-06-20T03:05:39.803Z,82.00
2019-06-20T03:08:08.305Z,82.30
2019-06-20T03:10:36.786Z,82.50
2019-06-20T03:13:05.337Z,82.40
2019-06-20T03:15:33.884Z,82.30
2019-06-20T03:18:02.455Z,82.10
2019-06-20T03:20:31.034Z,82.20
2019-06-20T03:22:59.530Z,82.00
2019-06-20T03:25:28.090Z,82.50
2019-06-20T03:27:56.651Z,82.80
2019-06-20T03:30:25.455Z,82.90
2019-06-20T03:32:54.090Z,83.00
2019-06-20T03:35:22.673Z,83.10
2019-06-20T03:37:51.172Z,83.80
2019-06-20T03:40:20.395Z,84.00
2019-06-20T03:42:48.890Z,84.10
2019-06-20T03:45:17.572Z,84.70
2019-06-20T03:47:46.133Z,84.90
2019-06-20T03:50:14.967Z,84.70
2019-06-20T03:52:43.655Z,84.40
2019-06-20T03:55:12.591Z,84.20
2019-06-20T03:57:41.238Z,84.50
2019-06-20T04:00:10.486Z,84.50
2019-06-20T04:02:38.970Z,84.10
2019-06-20T04:05:07.670Z,83.80
2019-06-20T04:07:36.178Z,83.60
2019-06-20T04:10:06.034Z,84.20
2019-06-20T04:12:34.545Z,84.20
2019-06-20T04:15:17.863Z,84.20
2019-06-20T04:17:33.343Z,84.50
2019-06-20T04:20:01.824Z,84.40
2019-06-20T04:22:30.330Z,84.60
2019-06-20T04:24:58.823Z,84.70
2019-06-20T04:27:27.318Z,84.80
2019-06-20T04:29:55.868Z,84.80
2019-06-20T04:32:24.369Z,84.70
2019-06-20T04:34:52.861Z,85.00
2019-06-20T04:37:21.367Z,85.20
2019-06-20T04:39:49.870Z,85.20
2019-06-20T04:42:18.918Z,85.50
2019-06-20T04:44:47.671Z,85.30
2019-06-20T04:47:16.955Z,85.40
2019-06-20T04:49:45.540Z,85.30
2019-06-20T04:52:14.047Z,85.00
2019-06-20T04:54:42.545Z,85.20
2019-06-20T04:57:11.059Z,85.20
2019-06-20T04:59:39.657Z,85.50
2019-06-20T05:02:08.261Z,85.40
2019-06-20T05:04:36.833Z,84.80
2019-06-20T05:07:17.563Z,84.30
2019-06-20T05:09:46.314Z,84.80
2019-06-20T05:12:14.806Z,83.70
2019-06-20T05:14:44.589Z,83.60
2019-06-20T05:17:13.073Z,83.60
2019-06-20T05:19:41.566Z,83.60
2019-06-20T05:22:10.074Z,83.80
2019-06-20T05:24:38.618Z,83.20
2019-06-20T05:27:07.165Z,83.70
2019-06-20T05:29:35.658Z,83.90
2019-06-20T05:32:04.150Z,84.10
2019-06-20T05:34:32.649Z,83.90
2019-06-20T05:37:01.452Z,84.00
2019-06-20T05:39:29.967Z,83.80
2019-06-20T05:41:58.563Z,84.00
2019-06-20T05:44:27.067Z,84.40
2019-06-20T05:47:11.404Z,84.30
2019-06-20T05:49:25.799Z,82.60
2019-06-20T05:51:54.314Z,83.10
2019-06-20T05:54:22.803Z,83.10
2019-06-20T05:56:51.300Z,81.20
2019-06-20T05:59:20.054Z,82.00
2019-06-20T06:01:48.555Z,80.80
2019-06-20T06:04:17.061Z,79.90
2019-06-20T06:06:45.570Z,80.30
2019-06-20T06:09:14.156Z,77.80
2019-06-20T06:11:42.675Z,79.20
2019-06-20T06:14:11.235Z,78.00
2019-06-20T06:16:43.883Z,77.20
2019-06-20T06:19:10.175Z,78.00
2019-06-20T06:21:38.820Z,77.20
2019-06-20T06:24:07.324Z,77.80
2019-06-20T06:26:36.022Z,77.80
2019-06-20T06:29:04.697Z,75.60
2019-06-20T06:31:33.340Z,76.80
2019-06-20T06:34:01.906Z,76.60
2019-06-20T06:36:30.478Z,76.20
2019-06-20T06:38:58.968Z,76.30
2019-06-20T06:41:27.484Z,76.40
2019-06-20T06:43:55.978Z,77.10
2019-06-20T06:46:24.630Z,77.20
2019-06-20T06:48:53.262Z,78.20
2019-06-20T06:51:21.778Z,77.80
2019-06-20T06:53:50.263Z,78.20
2019-06-20T06:56:20.194Z,78.20
2019-06-20T06:58:48.767Z,78.20
2019-06-20T07:01:17.354Z,77.70
2019-06-20T07:03:45.866Z,77.80
2019-06-20T07:06:14.448Z,77.50
2019-06-20T07:08:42.974Z,77.50
2019-06-20T07:11:11.491Z,78.20
2019-06-20T07:13:39.996Z,77.30
2019-06-20T07:16:08.556Z,77.50
2019-06-20T07:18:37.041Z,78.30
2019-06-20T07:21:05.547Z,78.30
2019-06-20T07:23:34.593Z,79.00
2019-06-20T07:26:03.083Z,79.30
2019-06-20T07:28:31.589Z,78.40
2019-06-20T07:31:00.111Z,78.50
2019-06-20T07:33:28.676Z,78.90
2019-06-20T07:35:57.164Z,79.20
2019-06-20T07:38:25.672Z,78.10
2019-06-20T07:40:54.290Z,78.30
2019-06-20T07:43:23.010Z,77.20
2019-06-20T07:46:02.077Z,76.60
2019-06-20T07:48:21.710Z,76.90
2019-06-20T07:50:50.493Z,76.80
2019-06-20T07:53:19.039Z,79.20
2019-06-20T07:55:47.605Z,77.90
2019-06-20T07:58:16.143Z,77.90
2019-06-20T08:00:44.703Z,77.90
2019-06-20T08:03:13.231Z,76.20
2019-06-20T08:05:41.782Z,76.70
2019-06-20T08:08:10.282Z,76.80
2019-06-20T08:10:38.793Z,76.70
2019-06-20T08:13:07.277Z,76.60
2019-06-20T08:15:35.798Z,76.40
2019-06-20T08:18:04.890Z,76.70
2019-06-20T08:20:34.918Z,77.80
2019-06-20T08:23:03.494Z,75.90
2019-06-20T08:25:32.062Z,76.90
2019-06-20T08:28:00.819Z,75.90
2019-06-20T08:30:34.842Z,76.30
2019-06-20T08:33:08.710Z,76.00
2019-06-20T08:35:34.094Z,74.30
2019-06-20T08:38:03.746Z,74.70
2019-06-20T08:40:36.227Z,73.50
2019-06-20T08:43:06.291Z,72.40
2019-06-20T08:45:36.909Z,72.90
2019-06-20T08:48:07.268Z,72.40
2019-06-20T08:50:36.564Z,71.10
2019-06-20T08:53:06.022Z,71.90
2019-06-20T08:55:35.112Z,73.00
2019-06-20T08:58:05.456Z,69.10
2019-06-20T09:00:36.323Z,70.00
2019-06-20T09:03:06.537Z,70.00
2019-06-20T09:05:35.517Z,69.80
2019-06-20T09:08:05.055Z,70.60
2019-06-20T09:10:39.446Z,70.50
2019-06-20T09:13:08.683Z,69.40
2019-06-20T09:15:37.267Z,67.60
2019-06-20T09:18:06.314Z,63.80
2019-06-20T09:20:35.191Z,63.70
2019-06-20T09:23:04.049Z,62.50
2019-06-20T09:25:32.609Z,62.70
2019-06-20T09:28:02.516Z,64.20
2019-06-20T09:30:31.521Z,64.50
2019-06-20T09:33:00.367Z,64.90
2019-06-20T09:35:28.857Z,65.90
2019-06-20T09:37:57.557Z,65.20
2019-06-20T09:40:26.399Z,64.80
2019-06-20T09:42:54.942Z,66.00
2019-06-20T09:45:23.874Z,66.10
2019-06-20T09:47:53.702Z,64.40
2019-06-20T09:50:22.714Z,62.70
2019-06-20T09:52:51.570Z,61.50
2019-06-20T09:55:21.571Z,60.40
2019-06-20T09:57:50.780Z,60.30
2019-06-20T10:00:23.715Z,60.00
2019-06-20T10:02:54.093Z,61.30
2019-06-20T10:05:22.966Z,60.20
2019-06-20T10:07:52.264Z,59.50
2019-06-20T10:10:24.159Z,60.20
2019-06-20T10:12:53.682Z,57.70
2019-06-20T10:15:34.219Z,57.20
2019-06-20T10:18:02.749Z,56.60
2019-06-20T10:20:31.313Z,56.50
2019-06-20T10:22:59.824Z,55.50
2019-06-20T10:25:28.375Z,53.70
2019-06-20T10:27:57.893Z,53.80
2019-06-20T10:30:27.334Z,54.40
2019-06-20T10:32:57.553Z,54.10
2019-06-20T10:35:26.539Z,54.90
2019-06-20T10:37:55.038Z,55.10
2019-06-20T10:40:24.015Z,55.70
2019-06-20T10:42:53.121Z,55.30
2019-06-20T10:45:23.614Z,55.60
2019-06-20T10:47:52.969Z,54.70
2019-06-20T10:50:22.780Z,54.30
2019-06-20T10:52:51.917Z,53.90
2019-06-20T10:55:20.909Z,54.30
2019-06-20T10:57:49.942Z,54.80
2019-06-20T11:00:30.335Z,53.40
2019-06-20T11:02:51.194Z,52.10
2019-06-20T11:05:19.937Z,52.60
2019-06-20T11:07:49.945Z,52.30
2019-06-20T11:20:22.415Z,51.50
2019-06-20T11:22:51.013Z,50.30
2019-06-20T11:25:20.034Z,51.10
2019-06-20T11:31:23.389Z,49.00
2019-06-20T11:33:51.962Z,49.50
2019-06-20T11:36:20.551Z,49.80
2019-06-20T11:38:49.218Z,49.40
2019-06-20T11:41:17.884Z,50.90
2019-06-20T11:43:46.859Z,51.80
2019-06-20T11:46:15.441Z,52.50
2019-06-20T11:48:43.973Z,52.90
2019-06-20T11:51:12.487Z,53.60
2019-06-20T11:53:40.983Z,54.30
2019-06-20T11:56:09.506Z,53.40
2019-06-20T11:58:38.092Z,52.40
2019-06-20T12:01:06.788Z,53.30
2019-06-20T12:03:35.371Z,52.60
2019-06-20T12:06:04.351Z,52.80
2019-06-20T12:08:32.933Z,49.00
2019-06-20T12:11:02.227Z,48.60
2019-06-20T12:13:30.743Z,48.40
2019-06-20T12:15:59.293Z,47.40
2019-06-20T12:18:27.779Z,48.40
2019-06-20T12:20:56.309Z,49.90
2019-06-20T12:23:24.790Z,49.60
2019-06-20T12:25:53.283Z,50.00
2019-06-20T12:28:21.802Z,52.40
2019-06-20T12:30:50.526Z,51.80
2019-06-20T12:33:19.112Z,51.90
2019-06-20T12:35:48.709Z,53.10
2019-06-20T12:38:17.275Z,52.80
2019-06-20T12:40:46.163Z,51.90
2019-06-20T12:43:14.862Z,52.90
2019-06-20T12:45:43.430Z,51.80
2019-06-20T12:48:11.929Z,51.50
2019-06-20T12:50:41.502Z,51.00
2019-06-20T12:53:10.668Z,51.40
2019-06-20T12:55:40.348Z,51.10
2019-06-20T12:58:09.015Z,50.10
2019-06-20T13:00:39.494Z,52.00
2019-06-20T13:03:08.353Z,47.60
2019-06-20T13:05:38.433Z,47.30
2019-06-20T13:08:07.311Z,45.50
2019-06-20T13:10:35.891Z,44.70
2019-06-20T13:13:04.391Z,44.70
2019-06-20T13:15:32.883Z,44.80
2019-06-20T13:18:01.488Z,45.00
2019-06-20T13:20:30.103Z,45.00
2019-06-20T13:22:58.627Z,46.10
2019-06-20T13:25:27.115Z,46.70
2019-06-20T13:27:55.661Z,46.00
2019-06-20T13:30:24.563Z,44.60
2019-06-20T13:32:53.055Z,45.00
2019-06-20T13:35:21.654Z,46.20
2019-06-20T13:37:50.284Z,47.10
2019-06-20T13:40:19.238Z,48.20
2019-06-20T13:42:48.126Z,48.80
2019-06-20T13:45:22.718Z,48.80
2019-06-20T13:47:51.595Z,48.70
2019-06-20T13:50:22.119Z,45.80
2019-06-20T13:52:51.322Z,45.50
2019-06-20T13:55:20.226Z,45.60
2019-06-20T13:57:49.202Z,45.00
2019-06-20T14:00:20.487Z,45.70
2019-06-20T14:02:51.070Z,46.10
2019-06-20T14:05:19.682Z,47.30
2019-06-20T14:07:51.853Z,47.30
2019-06-20T14:10:19.090Z,47.00
2019-06-20T14:12:48.760Z,48.10
2019-06-20T14:15:18.727Z,48.70
2019-06-20T14:17:47.578Z,47.30
2019-06-20T14:20:17.478Z,48.00
2019-06-20T14:22:46.005Z,46.90
2019-06-20T14:25:15.103Z,46.50
2019-06-20T14:27:43.965Z,47.20
2019-06-20T14:30:14.830Z,47.10
2019-06-20T14:32:43.434Z,47.00
2019-06-20T14:35:13.353Z,46.20
2019-06-20T14:37:43.425Z,46.70
2019-06-20T14:40:12.706Z,46.50
2019-06-20T14:42:42.772Z,46.30
2019-06-20T14:45:13.171Z,44.40
2019-06-20T14:47:41.747Z,46.20
2019-06-20T14:50:12.451Z,46.10
2019-06-20T14:52:41.019Z,46.60
2019-06-20T14:55:09.866Z,43.10
2019-06-20T14:57:38.375Z,44.30
2019-06-20T15:00:08.003Z,44.80
2019-06-20T15:02:38.788Z,44.60
2019-06-20T15:05:17.303Z,43.80
2019-06-20T15:07:47.357Z,44.10
2019-06-20T15:10:17.068Z,44.50
2019-06-20T15:12:47.435Z,45.70
2019-06-20T15:15:17.013Z,44.00
2019-06-20T15:17:49.157Z,43.80
2019-06-20T15:20:17.193Z,44.50
2019-06-20T15:22:47.411Z,44.80
2019-06-20T15:25:16.147Z,45.20
2019-06-20T15:27:47.147Z,44.30
2019-06-20T15:30:15.826Z,45.00
2019-06-20T15:32:55.840Z,44.60
2019-06-20T15:35:16.126Z,43.80
2019-06-20T15:37:44.692Z,44.00
2019-06-20T15:40:14.582Z,44.40
2019-06-20T15:42:43.143Z,45.50
2019-06-20T15:45:12.269Z,46.50
2019-06-20T15:47:40.831Z,45.40
2019-06-20T15:50:09.810Z,45.60
2019-06-20T15:52:38.299Z,46.00
2019-06-20T15:55:07.167Z,46.20
2019-06-20T15:57:35.786Z,46.40
2019-06-20T16:00:09.348Z,46.90
2019-06-20T16:02:37.910Z,46.20
2019-06-20T16:05:08.323Z,46.50
2019-06-20T16:07:37.172Z,47.60
2019-06-20T16:10:07.471Z,47.60
2019-06-20T16:12:36.053Z,46.00
2019-06-20T16:15:07.373Z,46.00
2019-06-20T16:17:35.934Z,46.10
2019-06-20T16:20:05.767Z,47.30
2019-06-20T16:22:34.264Z,47.90
2019-06-20T16:25:03.006Z,47.30
2019-06-20T16:27:31.613Z,47.60
2019-06-20T16:30:00.194Z,47.00
2019-06-20T16:32:28.734Z,46.80
2019-06-20T16:34:57.270Z,47.80
2019-06-20T16:37:25.824Z,46.80
2019-06-20T16:39:54.322Z,44.90
2019-06-20T16:42:22.892Z,44.50
2019-06-20T16:44:51.513Z,45.10
2019-06-20T16:47:20.084Z,45.30
2019-06-20T16:49:48.656Z,45.60
2019-06-20T16:52:17.277Z,46.20
2019-06-20T16:54:45.782Z,44.70
2019-06-20T16:57:14.357Z,45.20
2019-06-20T16:59:42.884Z,45.20
2019-06-20T17:02:11.435Z,45.40
2019-06-20T17:04:40.007Z,46.30
2019-06-20T17:07:08.568Z,47.00
2019-06-20T17:09:37.073Z,46.80
2019-06-20T17:12:05.593Z,47.40
2019-06-20T17:14:34.171Z,47.90
2019-06-20T17:17:02.748Z,47.40
2019-06-20T17:19:31.256Z,48.30
2019-06-20T17:21:59.779Z,48.10
2019-06-20T17:24:28.485Z,48.50
2019-06-20T17:26:57.180Z,48.70
2019-06-20T17:29:25.940Z,48.70
2019-06-20T17:31:57.379Z,48.60
2019-06-20T17:34:24.757Z,48.50
2019-06-20T17:36:53.246Z,48.90
2019-06-20T17:39:21.782Z,48.90
2019-06-20T17:41:55.220Z,49.40
2019-06-20T17:44:20.507Z,49.60
2019-06-20T17:46:49.120Z,50.40
2019-06-20T17:49:17.684Z,50.60
2019-06-20T17:51:46.175Z,50.70
2019-06-20T17:54:14.683Z,51.50
2019-06-20T17:56:43.359Z,51.50
2019-06-20T17:59:11.869Z,51.40
2019-06-20T18:01:40.460Z,51.90
2019-06-20T18:04:13.657Z,51.60
2019-06-20T18:06:39.333Z,52.30
2019-06-20T18:09:08.087Z,52.00
2019-06-20T18:11:36.677Z,52.50
2019-06-20T18:14:05.331Z,52.40
2019-06-20T18:16:33.859Z,53.20
2019-06-20T18:19:02.354Z,53.40
2019-06-20T18:21:31.059Z,52.90
2019-06-20T18:23:59.633Z,53.10
2019-06-20T18:26:28.183Z,53.00
2019-06-20T18:28:56.896Z,52.90
2019-06-20T18:31:25.397Z,53.40
2019-06-20T18:33:53.994Z,53.50
2019-06-20T18:36:22.523Z,53.30
2019-06-20T18:38:51.139Z,53.60
2019-06-20T18:41:19.701Z,54.00
2019-06-20T18:43:48.367Z,53.80
2019-06-20T18:46:16.996Z,53.80
2019-06-20T18:48:45.572Z,53.80
2019-06-20T18:51:14.435Z,54.80
2019-06-20T18:53:43.474Z,57.10
2019-06-20T18:56:12.213Z,60.00
2019-06-20T18:58:40.722Z,64.70
2019-06-20T19:01:09.301Z,69.40
2019-06-20T19:03:37.876Z,70.00
2019-06-20T19:06:06.484Z,72.10
2019-06-20T19:08:35.058Z,72.40
2019-06-20T19:11:03.656Z,72.30
2019-06-20T19:13:32.271Z,72.70
2019-06-20T19:16:00.831Z,72.10
2019-06-20T19:18:29.418Z,72.10
2019-06-20T19:20:57.927Z,73.50
2019-06-20T19:23:26.474Z,73.90
2019-06-20T19:25:55.089Z,72.50
2019-06-20T19:28:23.657Z,73.10
2019-06-20T19:30:52.761Z,72.90
2019-06-20T19:33:21.337Z,71.90
2019-06-20T19:35:49.832Z,72.00
2019-06-20T19:38:18.416Z,70.90
2019-06-20T19:40:48.804Z,72.00
2019-06-20T19:43:17.556Z,73.80
2019-06-20T19:45:46.520Z,73.80
2019-06-20T19:48:15.505Z,74.70
2019-06-20T19:50:44.656Z,74.50
2019-06-20T19:53:13.583Z,74.80
2019-06-20T19:55:42.427Z,74.80
2019-06-20T19:58:11.092Z,74.30
2019-06-20T20:00:39.720Z,74.40
2019-06-20T20:03:08.518Z,74.50
2019-06-20T20:05:37.199Z,75.00
2019-06-20T20:08:06.286Z,75.50
2019-06-20T20:10:45.891Z,75.40
2019-06-20T20:13:15.549Z,75.20
2019-06-20T20:15:45.146Z,75.10
2019-06-20T20:18:14.730Z,76.10
2019-06-20T20:20:47.944Z,76.50
2019-06-20T20:23:17.267Z,76.60
2019-06-20T20:25:45.841Z,76.20
2019-06-20T20:28:14.588Z,76.50
2019-06-20T20:30:43.123Z,77.00
2019-06-20T20:33:11.784Z,77.50
2019-06-20T20:35:40.302Z,77.50
2019-06-20T20:38:08.815Z,77.70
2019-06-20T20:40:37.346Z,78.00
2019-06-20T20:43:05.913Z,78.00
2019-06-20T20:45:34.442Z,78.80
2019-06-20T20:48:03.031Z,79.10
2019-06-20T20:50:31.545Z,78.80
2019-06-20T20:53:00.066Z,79.00
2019-06-20T20:55:28.812Z,78.70
2019-06-20T20:57:57.409Z,78.40
2019-06-20T21:00:57.982Z,78.60
2019-06-20T21:03:26.520Z,78.40
2019-06-20T21:05:55.112Z,78.40
2019-06-20T21:08:23.639Z,78.30
2019-06-20T21:10:52.250Z,78.90
2019-06-20T21:13:22.213Z,78.80
2019-06-20T21:15:50.726Z,78.70
2019-06-20T21:18:19.320Z,78.80
2019-06-20T21:20:47.838Z,78.70
2019-06-20T21:23:16.342Z,78.80
2019-06-20T21:25:44.855Z,78.40
2019-06-20T21:28:13.361Z,78.00
2019-06-20T21:30:41.976Z,77.50
2019-06-20T21:33:10.522Z,77.30
2019-06-20T21:35:39.107Z,76.70
2019-06-20T21:38:07.628Z,76.50
2019-06-20T21:40:36.195Z,76.40
2019-06-20T21:43:04.919Z,75.60
2019-06-20T21:45:33.415Z,75.50
2019-06-20T21:48:01.980Z,75.40
2019-06-20T21:50:30.577Z,75.70
2019-06-20T21:52:59.218Z,75.70
2019-06-20T21:55:27.975Z,75.50
2019-06-20T21:57:56.699Z,75.70
2019-06-20T22:00:30.115Z,75.50
2019-06-20T22:02:57.925Z,75.60
2019-06-20T22:05:26.422Z,76.50
2019-06-20T22:07:55.046Z,76.30
2019-06-20T22:10:23.604Z,75.60
2019-06-20T22:12:52.124Z,75.90
2019-06-20T22:15:20.751Z,76.30
2019-06-20T22:17:49.626Z,76.20
2019-06-20T22:20:18.588Z,76.10
2019-06-20T22:22:47.176Z,76.30
2019-06-20T22:25:16.304Z,75.90
2019-06-20T22:27:44.938Z,75.70
2019-06-20T22:30:14.892Z,75.00
2019-06-20T22:32:43.383Z,75.80
2019-06-20T22:35:12.303Z,75.00
2019-06-20T22:37:40.858Z,75.20
2019-06-20T22:40:10.265Z,75.40
2019-06-20T22:42:38.777Z,74.50
2019-06-20T22:45:08.342Z,75.50
2019-06-20T22:47:37.351Z,75.30
2019-06-20T22:50:09.627Z,75.10
2019-06-20T22:52:38.259Z,75.70
2019-06-20T22:55:06.896Z,75.70
2019-06-20T22:57:35.391Z,75.60
2019-06-20T23:00:07.126Z,75.00
2019-06-20T23:02:35.692Z,75.90
2019-06-20T23:05:05.235Z,75.30
2019-06-20T23:07:33.864Z,76.00
2019-06-20T23:10:10.453Z,75.80
2019-06-20T23:12:32.727Z,76.40
2019-06-20T23:15:01.277Z,76.30
2019-06-20T23:17:29.866Z,76.30
2019-06-20T23:19:58.461Z,76.60
2019-06-20T23:22:27.018Z,76.70
2019-06-20T23:24:55.512Z,76.20
2019-06-20T23:27:25.407Z,76.40
2019-06-20T23:29:53.894Z,76.00
2019-06-20T23:32:22.453Z,76.40
2019-06-20T23:34:51.036Z,76.90
2019-06-20T23:37:19.566Z,77.30
2019-06-20T23:39:48.109Z,77.50
2019-06-20T23:42:16.611Z,78.10
2019-06-20T23:44:45.187Z,78.40
2019-06-20T23:47:13.810Z,78.40
2019-06-20T23:49:42.340Z,79.00
2019-06-20T23:52:15.509Z,79.00
2019-06-20T23:54:44.174Z,79.00
2019-06-20T23:57:13.967Z,78.80
2019-06-20T23:59:45.423Z,78.70
